sensor_id;sensor_type;location;lat;lon;timestamp;P1;durP1;ratioP1;P2;durP2;ratioP2
15878;SDS011;61999;51.514;14.614;2023-04-25T00:02:17;3.07;;;2.77;;
15878;SDS011;61999;51.514;14.614;2023-04-25T00:04:45;4.63;;;2.90;;
15878;SDS011;61999;51.514;14.614;2023-04-25T00:07:14;4.70;;;2.40;;
15878;SDS011;61999;51.514;14.614;2023-04-25T00:09:44;3.90;;;3.60;;
15878;SDS011;61999;51.514;14.614;2023-04-25T00:12:12;3.67;;;3.37;;
15878;SDS011;61999;51.514;14.614;2023-04-25T00:14:41;3.10;;;2.87;;
15878;SDS011;61999;51.514;14.614;2023-04-25T00:17:11;5.40;;;3.60;;
15878;SDS011;61999;51.514;14.614;2023-04-25T00:19:39;3.73;;;3.30;;
15878;SDS011;61999;51.514;14.614;2023-04-25T00:22:07;4.07;;;3.07;;
15878;SDS011;61999;51.514;14.614;2023-04-25T00:24:35;3.37;;;2.60;;
15878;SDS011;61999;51.514;14.614;2023-04-25T00:27:03;3.47;;;3.07;;
15878;SDS011;61999;51.514;14.614;2023-04-25T00:29:31;5.03;;;3.27;;
15878;SDS011;61999;51.514;14.614;2023-04-25T00:31:59;4.03;;;3.20;;
15878;SDS011;61999;51.514;14.614;2023-04-25T00:34:28;3.90;;;3.47;;
15878;SDS011;61999;51.514;14.614;2023-04-25T00:36:56;4.10;;;3.07;;
15878;SDS011;61999;51.514;14.614;2023-04-25T00:39:24;3.73;;;3.43;;
15878;SDS011;61999;51.514;14.614;2023-04-25T00:41:52;5.53;;;3.00;;
15878;SDS011;61999;51.514;14.614;2023-04-25T00:44:21;6.10;;;3.17;;
15878;SDS011;61999;51.514;14.614;2023-04-25T00:46:51;2.97;;;2.70;;
15878;SDS011;61999;51.514;14.614;2023-04-25T00:49:21;6.13;;;3.40;;
15878;SDS011;61999;51.514;14.614;2023-04-25T00:51:50;3.30;;;2.90;;
15878;SDS011;61999;51.514;14.614;2023-04-25T00:54:18;3.40;;;3.10;;
15878;SDS011;61999;51.514;14.614;2023-04-25T00:56:46;3.57;;;3.20;;
15878;SDS011;61999;51.514;14.614;2023-04-25T00:59:14;4.53;;;3.53;;
15878;SDS011;61999;51.514;14.614;2023-04-25T01:01:43;3.80;;;3.50;;
15878;SDS011;61999;51.514;14.614;2023-04-25T01:04:12;4.00;;;3.60;;
15878;SDS011;61999;51.514;14.614;2023-04-25T01:06:40;3.37;;;3.07;;
15878;SDS011;61999;51.514;14.614;2023-04-25T01:09:10;4.37;;;3.97;;
15878;SDS011;61999;51.514;14.614;2023-04-25T01:11:38;5.07;;;3.60;;
15878;SDS011;61999;51.514;14.614;2023-04-25T01:14:07;3.53;;;3.23;;
15878;SDS011;61999;51.514;14.614;2023-04-25T01:16:35;4.80;;;3.87;;
15878;SDS011;61999;51.514;14.614;2023-04-25T01:19:04;3.70;;;3.40;;
15878;SDS011;61999;51.514;14.614;2023-04-25T01:21:38;4.20;;;3.33;;
15878;SDS011;61999;51.514;14.614;2023-04-25T01:24:07;5.30;;;3.50;;
15878;SDS011;61999;51.514;14.614;2023-04-25T01:26:35;4.20;;;3.80;;
15878;SDS011;61999;51.514;14.614;2023-04-25T01:29:04;4.13;;;3.53;;
15878;SDS011;61999;51.514;14.614;2023-04-25T01:31:32;5.40;;;3.83;;
15878;SDS011;61999;51.514;14.614;2023-04-25T01:34:02;3.67;;;3.37;;
15878;SDS011;61999;51.514;14.614;2023-04-25T01:36:30;5.03;;;3.60;;
15878;SDS011;61999;51.514;14.614;2023-04-25T01:38:59;5.10;;;3.70;;
15878;SDS011;61999;51.514;14.614;2023-04-25T01:41:28;4.20;;;3.80;;
15878;SDS011;61999;51.514;14.614;2023-04-25T01:43:57;4.27;;;3.90;;
15878;SDS011;61999;51.514;14.614;2023-04-25T01:46:25;5.43;;;3.23;;
15878;SDS011;61999;51.514;14.614;2023-04-25T01:48:53;6.03;;;3.57;;
15878;SDS011;61999;51.514;14.614;2023-04-25T01:51:21;4.00;;;3.60;;
15878;SDS011;61999;51.514;14.614;2023-04-25T01:53:50;3.93;;;3.57;;
15878;SDS011;61999;51.514;14.614;2023-04-25T01:56:19;4.93;;;4.07;;
15878;SDS011;61999;51.514;14.614;2023-04-25T01:58:47;4.00;;;3.60;;
15878;SDS011;61999;51.514;14.614;2023-04-25T02:01:16;5.00;;;4.13;;
15878;SDS011;61999;51.514;14.614;2023-04-25T02:03:44;3.97;;;3.47;;
15878;SDS011;61999;51.514;14.614;2023-04-25T02:06:12;3.80;;;3.50;;
15878;SDS011;61999;51.514;14.614;2023-04-25T02:08:40;3.97;;;3.57;;
15878;SDS011;61999;51.514;14.614;2023-04-25T02:11:08;3.93;;;3.63;;
15878;SDS011;61999;51.514;14.614;2023-04-25T02:13:37;4.70;;;3.73;;
15878;SDS011;61999;51.514;14.614;2023-04-25T02:16:05;4.33;;;3.90;;
15878;SDS011;61999;51.514;14.614;2023-04-25T02:18:33;4.33;;;3.93;;
15878;SDS011;61999;51.514;14.614;2023-04-25T02:21:03;4.43;;;3.83;;
15878;SDS011;61999;51.514;14.614;2023-04-25T02:23:31;7.57;;;3.80;;
15878;SDS011;61999;51.514;14.614;2023-04-25T02:25:59;5.23;;;3.90;;
15878;SDS011;61999;51.514;14.614;2023-04-25T02:28:27;4.57;;;4.17;;
15878;SDS011;61999;51.514;14.614;2023-04-25T02:30:56;5.87;;;4.03;;
15878;SDS011;61999;51.514;14.614;2023-04-25T02:33:24;4.23;;;3.40;;
15878;SDS011;61999;51.514;14.614;2023-04-25T02:35:52;4.87;;;3.60;;
15878;SDS011;61999;51.514;14.614;2023-04-25T02:38:20;3.83;;;3.53;;
15878;SDS011;61999;51.514;14.614;2023-04-25T02:40:48;4.30;;;3.90;;
15878;SDS011;61999;51.514;14.614;2023-04-25T02:43:17;5.53;;;4.23;;
15878;SDS011;61999;51.514;14.614;2023-04-25T02:45:45;4.40;;;4.00;;
15878;SDS011;61999;51.514;14.614;2023-04-25T02:48:14;4.53;;;3.87;;
15878;SDS011;61999;51.514;14.614;2023-04-25T02:50:43;6.60;;;4.67;;
15878;SDS011;61999;51.514;14.614;2023-04-25T02:53:11;5.27;;;3.50;;
15878;SDS011;61999;51.514;14.614;2023-04-25T02:55:39;3.87;;;3.50;;
15878;SDS011;61999;51.514;14.614;2023-04-25T02:58:07;3.40;;;3.10;;
15878;SDS011;61999;51.514;14.614;2023-04-25T03:00:36;3.63;;;3.33;;
15878;SDS011;61999;51.514;14.614;2023-04-25T03:03:04;3.93;;;3.63;;
15878;SDS011;61999;51.514;14.614;2023-04-25T03:05:33;4.03;;;3.63;;
15878;SDS011;61999;51.514;14.614;2023-04-25T03:08:01;4.50;;;3.83;;
15878;SDS011;61999;51.514;14.614;2023-04-25T03:10:30;5.67;;;3.90;;
15878;SDS011;61999;51.514;14.614;2023-04-25T03:12:58;4.33;;;3.93;;
15878;SDS011;61999;51.514;14.614;2023-04-25T03:15:25;4.00;;;3.60;;
15878;SDS011;61999;51.514;14.614;2023-04-25T03:17:53;4.87;;;4.10;;
15878;SDS011;61999;51.514;14.614;2023-04-25T03:20:21;4.50;;;4.10;;
15878;SDS011;61999;51.514;14.614;2023-04-25T03:22:51;5.40;;;4.13;;
15878;SDS011;61999;51.514;14.614;2023-04-25T03:25:19;4.00;;;3.60;;
15878;SDS011;61999;51.514;14.614;2023-04-25T03:27:47;4.90;;;3.90;;
15878;SDS011;61999;51.514;14.614;2023-04-25T03:30:15;4.00;;;3.60;;
15878;SDS011;61999;51.514;14.614;2023-04-25T03:32:43;4.33;;;3.87;;
15878;SDS011;61999;51.514;14.614;2023-04-25T03:35:11;7.53;;;4.17;;
15878;SDS011;61999;51.514;14.614;2023-04-25T03:37:39;3.37;;;3.17;;
15878;SDS011;61999;51.514;14.614;2023-04-25T03:40:12;4.20;;;3.00;;
15878;SDS011;61999;51.514;14.614;2023-04-25T03:42:40;4.50;;;3.17;;
15878;SDS011;61999;51.514;14.614;2023-04-25T03:45:09;3.10;;;2.90;;
15878;SDS011;61999;51.514;14.614;2023-04-25T03:47:37;4.53;;;3.13;;
15878;SDS011;61999;51.514;14.614;2023-04-25T03:50:05;3.40;;;3.10;;
15878;SDS011;61999;51.514;14.614;2023-04-25T03:52:34;4.33;;;3.93;;
15878;SDS011;61999;51.514;14.614;2023-04-25T03:55:02;3.90;;;3.50;;
15878;SDS011;61999;51.514;14.614;2023-04-25T03:57:33;3.80;;;3.20;;
15878;SDS011;61999;51.514;14.614;2023-04-25T04:00:01;3.40;;;3.10;;
15878;SDS011;61999;51.514;14.614;2023-04-25T04:02:30;3.23;;;2.80;;
15878;SDS011;61999;51.514;14.614;2023-04-25T04:05:01;4.47;;;3.20;;
15878;SDS011;61999;51.514;14.614;2023-04-25T04:07:29;5.23;;;4.30;;
15878;SDS011;61999;51.514;14.614;2023-04-25T04:09:58;4.77;;;4.37;;
15878;SDS011;61999;51.514;14.614;2023-04-25T04:12:27;6.03;;;4.10;;
15878;SDS011;61999;51.514;14.614;2023-04-25T04:14:56;3.57;;;3.27;;
15878;SDS011;61999;51.514;14.614;2023-04-25T04:17:24;3.97;;;3.37;;
15878;SDS011;61999;51.514;14.614;2023-04-25T04:19:52;4.53;;;4.07;;
15878;SDS011;61999;51.514;14.614;2023-04-25T04:22:20;5.13;;;4.00;;
15878;SDS011;61999;51.514;14.614;2023-04-25T04:24:48;4.23;;;3.83;;
15878;SDS011;61999;51.514;14.614;2023-04-25T04:27:17;4.70;;;4.20;;
15878;SDS011;61999;51.514;14.614;2023-04-25T04:29:45;5.40;;;4.37;;
15878;SDS011;61999;51.514;14.614;2023-04-25T04:32:15;6.00;;;5.03;;
15878;SDS011;61999;51.514;14.614;2023-04-25T04:34:44;4.57;;;4.10;;
15878;SDS011;61999;51.514;14.614;2023-04-25T04:37:13;4.80;;;4.33;;
15878;SDS011;61999;51.514;14.614;2023-04-25T04:39:41;5.53;;;4.33;;
15878;SDS011;61999;51.514;14.614;2023-04-25T04:42:09;8.57;;;4.77;;
15878;SDS011;61999;51.514;14.614;2023-04-25T04:44:38;5.33;;;4.17;;
15878;SDS011;61999;51.514;14.614;2023-04-25T04:47:06;5.47;;;4.60;;
15878;SDS011;61999;51.514;14.614;2023-04-25T04:49:36;5.67;;;4.40;;
15878;SDS011;61999;51.514;14.614;2023-04-25T04:52:04;5.20;;;4.33;;
15878;SDS011;61999;51.514;14.614;2023-04-25T04:54:31;7.97;;;4.73;;
15878;SDS011;61999;51.514;14.614;2023-04-25T04:57:01;7.67;;;5.27;;
15878;SDS011;61999;51.514;14.614;2023-04-25T04:59:29;6.57;;;4.30;;
15878;SDS011;61999;51.514;14.614;2023-04-25T05:01:57;5.23;;;4.33;;
15878;SDS011;61999;51.514;14.614;2023-04-25T05:04:25;6.17;;;3.97;;
15878;SDS011;61999;51.514;14.614;2023-04-25T05:06:54;8.50;;;5.37;;
15878;SDS011;61999;51.514;14.614;2023-04-25T05:09:22;7.87;;;5.23;;
15878;SDS011;61999;51.514;14.614;2023-04-25T05:11:51;5.63;;;4.83;;
15878;SDS011;61999;51.514;14.614;2023-04-25T05:14:20;6.50;;;4.80;;
15878;SDS011;61999;51.514;14.614;2023-04-25T05:16:49;6.67;;;4.53;;
15878;SDS011;61999;51.514;14.614;2023-04-25T05:19:16;5.27;;;4.77;;
15878;SDS011;61999;51.514;14.614;2023-04-25T05:21:44;5.73;;;5.13;;
15878;SDS011;61999;51.514;14.614;2023-04-25T05:24:14;6.30;;;4.97;;
15878;SDS011;61999;51.514;14.614;2023-04-25T05:26:42;6.67;;;5.67;;
15878;SDS011;61999;51.514;14.614;2023-04-25T05:29:10;5.97;;;5.40;;
15878;SDS011;61999;51.514;14.614;2023-04-25T05:31:38;8.07;;;5.20;;
15878;SDS011;61999;51.514;14.614;2023-04-25T05:34:06;7.60;;;5.07;;
15878;SDS011;61999;51.514;14.614;2023-04-25T05:36:34;5.27;;;4.77;;
15878;SDS011;61999;51.514;14.614;2023-04-25T05:39:01;5.57;;;4.97;;
15878;SDS011;61999;51.514;14.614;2023-04-25T05:41:31;8.37;;;5.73;;
15878;SDS011;61999;51.514;14.614;2023-04-25T05:43:59;7.27;;;5.20;;
15878;SDS011;61999;51.514;14.614;2023-04-25T05:46:28;8.40;;;5.47;;
15878;SDS011;61999;51.514;14.614;2023-04-25T05:48:56;7.67;;;4.50;;
15878;SDS011;61999;51.514;14.614;2023-04-25T05:51:24;5.27;;;4.67;;
15878;SDS011;61999;51.514;14.614;2023-04-25T05:53:53;6.67;;;5.30;;
15878;SDS011;61999;51.514;14.614;2023-04-25T05:56:21;6.53;;;4.73;;
15878;SDS011;61999;51.514;14.614;2023-04-25T05:58:51;6.30;;;5.03;;
15878;SDS011;61999;51.514;14.614;2023-04-25T06:01:19;6.53;;;5.20;;
15878;SDS011;61999;51.514;14.614;2023-04-25T06:03:47;8.80;;;5.17;;
15878;SDS011;61999;51.514;14.614;2023-04-25T06:06:17;6.00;;;4.87;;
15878;SDS011;61999;51.514;14.614;2023-04-25T06:08:45;4.93;;;4.40;;
15878;SDS011;61999;51.514;14.614;2023-04-25T06:11:13;6.97;;;4.57;;
15878;SDS011;61999;51.514;14.614;2023-04-25T06:13:41;6.70;;;4.67;;
15878;SDS011;61999;51.514;14.614;2023-04-25T06:16:10;5.60;;;4.60;;
15878;SDS011;61999;51.514;14.614;2023-04-25T06:18:38;8.17;;;4.37;;
15878;SDS011;61999;51.514;14.614;2023-04-25T06:21:06;4.17;;;3.77;;
15878;SDS011;61999;51.514;14.614;2023-04-25T06:23:34;4.57;;;2.93;;
15878;SDS011;61999;51.514;14.614;2023-04-25T06:26:02;4.03;;;3.43;;
15878;SDS011;61999;51.514;14.614;2023-04-25T06:28:30;5.80;;;3.83;;
15878;SDS011;61999;51.514;14.614;2023-04-25T06:30:58;5.73;;;4.10;;
15878;SDS011;61999;51.514;14.614;2023-04-25T06:33:27;6.97;;;4.40;;
15878;SDS011;61999;51.514;14.614;2023-04-25T06:35:55;9.83;;;4.20;;
15878;SDS011;61999;51.514;14.614;2023-04-25T06:38:23;5.80;;;4.20;;
15878;SDS011;61999;51.514;14.614;2023-04-25T06:40:51;4.57;;;4.00;;
15878;SDS011;61999;51.514;14.614;2023-04-25T06:43:19;6.03;;;3.77;;
15878;SDS011;61999;51.514;14.614;2023-04-25T06:45:47;6.23;;;4.30;;
15878;SDS011;61999;51.514;14.614;2023-04-25T06:48:15;5.47;;;4.20;;
15878;SDS011;61999;51.514;14.614;2023-04-25T06:50:44;10.17;;;5.03;;
15878;SDS011;61999;51.514;14.614;2023-04-25T06:53:12;6.03;;;4.37;;
15878;SDS011;61999;51.514;14.614;2023-04-25T06:55:40;5.70;;;4.43;;
15878;SDS011;61999;51.514;14.614;2023-04-25T06:58:08;6.63;;;3.60;;
15878;SDS011;61999;51.514;14.614;2023-04-25T07:00:36;4.47;;;3.77;;
15878;SDS011;61999;51.514;14.614;2023-04-25T07:03:04;4.33;;;2.93;;
15878;SDS011;61999;51.514;14.614;2023-04-25T07:05:32;5.10;;;4.27;;
15878;SDS011;61999;51.514;14.614;2023-04-25T07:08:02;6.07;;;3.93;;
15878;SDS011;61999;51.514;14.614;2023-04-25T07:10:30;5.43;;;3.50;;
15878;SDS011;61999;51.514;14.614;2023-04-25T07:12:58;6.60;;;4.30;;
15878;SDS011;61999;51.514;14.614;2023-04-25T07:15:26;5.57;;;4.00;;
15878;SDS011;61999;51.514;14.614;2023-04-25T07:17:54;4.93;;;3.60;;
15878;SDS011;61999;51.514;14.614;2023-04-25T07:20:22;5.13;;;3.40;;
15878;SDS011;61999;51.514;14.614;2023-04-25T07:22:50;5.67;;;3.50;;
15878;SDS011;61999;51.514;14.614;2023-04-25T07:25:19;6.53;;;3.93;;
15878;SDS011;61999;51.514;14.614;2023-04-25T07:27:47;6.90;;;3.53;;
15878;SDS011;61999;51.514;14.614;2023-04-25T07:30:15;4.73;;;3.77;;
15878;SDS011;61999;51.514;14.614;2023-04-25T07:32:44;5.07;;;3.63;;
15878;SDS011;61999;51.514;14.614;2023-04-25T07:35:12;5.07;;;3.83;;
15878;SDS011;61999;51.514;14.614;2023-04-25T07:37:40;4.17;;;3.17;;
15878;SDS011;61999;51.514;14.614;2023-04-25T07:40:08;6.50;;;3.50;;
15878;SDS011;61999;51.514;14.614;2023-04-25T07:42:39;6.17;;;3.50;;
15878;SDS011;61999;51.514;14.614;2023-04-25T07:45:07;4.80;;;3.03;;
15878;SDS011;61999;51.514;14.614;2023-04-25T07:47:36;6.87;;;3.00;;
15878;SDS011;61999;51.514;14.614;2023-04-25T07:50:04;5.47;;;2.73;;
15878;SDS011;61999;51.514;14.614;2023-04-25T07:52:34;5.20;;;2.97;;
15878;SDS011;61999;51.514;14.614;2023-04-25T07:55:02;4.17;;;2.40;;
15878;SDS011;61999;51.514;14.614;2023-04-25T07:57:30;3.97;;;2.70;;
15878;SDS011;61999;51.514;14.614;2023-04-25T08:00:00;5.40;;;2.40;;
15878;SDS011;61999;51.514;14.614;2023-04-25T08:02:28;3.10;;;2.80;;
15878;SDS011;61999;51.514;14.614;2023-04-25T08:04:56;4.80;;;2.60;;
15878;SDS011;61999;51.514;14.614;2023-04-25T08:07:24;6.23;;;3.20;;
15878;SDS011;61999;51.514;14.614;2023-04-25T08:09:53;3.33;;;2.60;;
15878;SDS011;61999;51.514;14.614;2023-04-25T08:12:21;4.47;;;2.10;;
15878;SDS011;61999;51.514;14.614;2023-04-25T08:14:49;4.47;;;2.50;;
15878;SDS011;61999;51.514;14.614;2023-04-25T08:17:19;3.63;;;2.60;;
15878;SDS011;61999;51.514;14.614;2023-04-25T08:19:47;4.80;;;2.97;;
15878;SDS011;61999;51.514;14.614;2023-04-25T08:22:15;4.00;;;2.40;;
15878;SDS011;61999;51.514;14.614;2023-04-25T08:24:43;3.90;;;2.00;;
15878;SDS011;61999;51.514;14.614;2023-04-25T08:27:11;3.07;;;2.20;;
15878;SDS011;61999;51.514;14.614;2023-04-25T08:29:39;3.30;;;2.87;;
15878;SDS011;61999;51.514;14.614;2023-04-25T08:32:07;3.97;;;2.33;;
15878;SDS011;61999;51.514;14.614;2023-04-25T08:34:36;3.43;;;2.13;;
15878;SDS011;61999;51.514;14.614;2023-04-25T08:37:08;3.00;;;2.63;;
15878;SDS011;61999;51.514;14.614;2023-04-25T08:39:37;3.77;;;2.30;;
15878;SDS011;61999;51.514;14.614;2023-04-25T08:42:05;5.00;;;2.50;;
15878;SDS011;61999;51.514;14.614;2023-04-25T08:44:34;5.77;;;2.53;;
15878;SDS011;61999;51.514;14.614;2023-04-25T08:47:03;3.17;;;2.53;;
15878;SDS011;61999;51.514;14.614;2023-04-25T08:49:32;3.10;;;2.37;;
15878;SDS011;61999;51.514;14.614;2023-04-25T08:52:03;4.97;;;2.33;;
15878;SDS011;61999;51.514;14.614;2023-04-25T08:54:32;2.87;;;2.17;;
15878;SDS011;61999;51.514;14.614;2023-04-25T08:57:03;2.83;;;2.00;;
15878;SDS011;61999;51.514;14.614;2023-04-25T08:59:32;2.37;;;2.03;;
15878;SDS011;61999;51.514;14.614;2023-04-25T09:02:01;6.37;;;2.70;;
15878;SDS011;61999;51.514;14.614;2023-04-25T09:04:30;2.40;;;2.20;;
15878;SDS011;61999;51.514;14.614;2023-04-25T09:06:59;2.60;;;2.00;;
15878;SDS011;61999;51.514;14.614;2023-04-25T09:09:29;2.13;;;1.80;;
15878;SDS011;61999;51.514;14.614;2023-04-25T09:11:56;5.67;;;1.90;;
15878;SDS011;61999;51.514;14.614;2023-04-25T09:14:25;3.50;;;1.90;;
15878;SDS011;61999;51.514;14.614;2023-04-25T09:16:57;3.30;;;1.87;;
15878;SDS011;61999;51.514;14.614;2023-04-25T09:19:28;2.03;;;1.80;;
15878;SDS011;61999;51.514;14.614;2023-04-25T09:22:02;2.50;;;2.03;;
15878;SDS011;61999;51.514;14.614;2023-04-25T09:24:34;3.50;;;2.37;;
15878;SDS011;61999;51.514;14.614;2023-04-25T09:27:04;3.00;;;2.20;;
15878;SDS011;61999;51.514;14.614;2023-04-25T09:29:34;5.27;;;2.43;;
15878;SDS011;61999;51.514;14.614;2023-04-25T09:32:10;1.90;;;1.80;;
15878;SDS011;61999;51.514;14.614;2023-04-25T09:34:41;3.00;;;2.00;;
15878;SDS011;61999;51.514;14.614;2023-04-25T09:37:17;3.63;;;1.90;;
15878;SDS011;61999;51.514;14.614;2023-04-25T09:39:49;3.87;;;2.57;;
15878;SDS011;61999;51.514;14.614;2023-04-25T09:42:21;2.47;;;1.80;;
15878;SDS011;61999;51.514;14.614;2023-04-25T09:44:51;5.63;;;2.23;;
15878;SDS011;61999;51.514;14.614;2023-04-25T09:47:22;3.20;;;2.13;;
15878;SDS011;61999;51.514;14.614;2023-04-25T09:49:51;3.03;;;1.90;;
15878;SDS011;61999;51.514;14.614;2023-04-25T09:52:21;3.53;;;2.07;;
15878;SDS011;61999;51.514;14.614;2023-04-25T09:54:52;4.43;;;2.20;;
15878;SDS011;61999;51.514;14.614;2023-04-25T09:57:21;5.00;;;2.30;;
15878;SDS011;61999;51.514;14.614;2023-04-25T09:59:51;3.47;;;2.60;;
15878;SDS011;61999;51.514;14.614;2023-04-25T10:02:23;5.93;;;2.17;;
15878;SDS011;61999;51.514;14.614;2023-04-25T10:04:54;5.30;;;2.87;;
15878;SDS011;61999;51.514;14.614;2023-04-25T10:07:23;2.43;;;2.23;;
15878;SDS011;61999;51.514;14.614;2023-04-25T10:09:58;4.57;;;2.20;;
15878;SDS011;61999;51.514;14.614;2023-04-25T10:12:29;6.67;;;2.57;;
15878;SDS011;61999;51.514;14.614;2023-04-25T10:14:58;4.60;;;2.30;;
15878;SDS011;61999;51.514;14.614;2023-04-25T10:17:27;3.27;;;2.30;;
15878;SDS011;61999;51.514;14.614;2023-04-25T10:19:56;3.80;;;2.40;;
15878;SDS011;61999;51.514;14.614;2023-04-25T10:22:29;3.83;;;2.30;;
15878;SDS011;61999;51.514;14.614;2023-04-25T10:25:03;2.93;;;2.07;;
15878;SDS011;61999;51.514;14.614;2023-04-25T10:27:34;3.03;;;2.27;;
15878;SDS011;61999;51.514;14.614;2023-04-25T10:30:03;3.13;;;2.20;;
15878;SDS011;61999;51.514;14.614;2023-04-25T10:32:36;4.27;;;2.20;;
15878;SDS011;61999;51.514;14.614;2023-04-25T10:35:11;3.90;;;2.63;;
15878;SDS011;61999;51.514;14.614;2023-04-25T10:37:57;4.40;;;2.20;;
15878;SDS011;61999;51.514;14.614;2023-04-25T10:40:28;2.97;;;2.20;;
15878;SDS011;61999;51.514;14.614;2023-04-25T10:42:56;4.27;;;2.30;;
15878;SDS011;61999;51.514;14.614;2023-04-25T10:46:18;2.97;;;1.90;;
15878;SDS011;61999;51.514;14.614;2023-04-25T10:48:50;2.50;;;2.13;;
15878;SDS011;61999;51.514;14.614;2023-04-25T10:51:21;2.83;;;2.20;;
15878;SDS011;61999;51.514;14.614;2023-04-25T10:53:56;4.23;;;2.00;;
15878;SDS011;61999;51.514;14.614;2023-04-25T10:56:27;4.87;;;2.53;;
15878;SDS011;61999;51.514;14.614;2023-04-25T10:59:04;3.73;;;1.90;;
15878;SDS011;61999;51.514;14.614;2023-04-25T11:01:38;4.23;;;2.00;;
15878;SDS011;61999;51.514;14.614;2023-04-25T11:04:18;3.80;;;2.20;;
15878;SDS011;61999;51.514;14.614;2023-04-25T11:06:53;3.80;;;2.00;;
15878;SDS011;61999;51.514;14.614;2023-04-25T11:09:33;2.83;;;2.17;;
15878;SDS011;61999;51.514;14.614;2023-04-25T11:12:01;2.67;;;2.30;;
15878;SDS011;61999;51.514;14.614;2023-04-25T11:14:31;3.60;;;2.80;;
15878;SDS011;61999;51.514;14.614;2023-04-25T11:16:59;3.63;;;2.97;;
15878;SDS011;61999;51.514;14.614;2023-04-25T11:19:28;3.77;;;2.67;;
15878;SDS011;61999;51.514;14.614;2023-04-25T11:21:57;3.43;;;2.80;;
15878;SDS011;61999;51.514;14.614;2023-04-25T11:24:27;2.87;;;2.50;;
15878;SDS011;61999;51.514;14.614;2023-04-25T11:26:56;4.13;;;3.00;;
15878;SDS011;61999;51.514;14.614;2023-04-25T11:29:28;2.50;;;2.30;;
15878;SDS011;61999;51.514;14.614;2023-04-25T11:31:59;4.30;;;2.60;;
15878;SDS011;61999;51.514;14.614;2023-04-25T11:34:28;4.20;;;2.43;;
15878;SDS011;61999;51.514;14.614;2023-04-25T11:36:58;5.23;;;2.70;;
15878;SDS011;61999;51.514;14.614;2023-04-25T11:39:27;3.60;;;2.80;;
15878;SDS011;61999;51.514;14.614;2023-04-25T11:41:56;4.03;;;3.00;;
15878;SDS011;61999;51.514;14.614;2023-04-25T11:44:24;4.17;;;3.20;;
15878;SDS011;61999;51.514;14.614;2023-04-25T11:46:53;4.63;;;3.30;;
15878;SDS011;61999;51.514;14.614;2023-04-25T11:49:22;3.17;;;2.80;;
15878;SDS011;61999;51.514;14.614;2023-04-25T11:51:51;4.70;;;3.37;;
15878;SDS011;61999;51.514;14.614;2023-04-25T11:54:18;4.03;;;2.97;;
15878;SDS011;61999;51.514;14.614;2023-04-25T11:56:47;3.47;;;3.10;;
15878;SDS011;61999;51.514;14.614;2023-04-25T11:59:15;3.87;;;3.47;;
15878;SDS011;61999;51.514;14.614;2023-04-25T12:01:47;4.30;;;3.47;;
15878;SDS011;61999;51.514;14.614;2023-04-25T12:04:17;5.20;;;3.67;;
15878;SDS011;61999;51.514;14.614;2023-04-25T12:06:49;5.03;;;2.77;;
15878;SDS011;61999;51.514;14.614;2023-04-25T12:09:20;3.97;;;3.40;;
15878;SDS011;61999;51.514;14.614;2023-04-25T12:11:55;4.20;;;3.80;;
15878;SDS011;61999;51.514;14.614;2023-04-25T12:14:29;4.80;;;3.23;;
15878;SDS011;61999;51.514;14.614;2023-04-25T12:16:59;4.03;;;3.40;;
15878;SDS011;61999;51.514;14.614;2023-04-25T12:19:34;3.83;;;3.17;;
15878;SDS011;61999;51.514;14.614;2023-04-25T12:22:19;3.30;;;3.00;;
15878;SDS011;61999;51.514;14.614;2023-04-25T12:24:49;2.97;;;2.77;;
15878;SDS011;61999;51.514;14.614;2023-04-25T12:27:19;4.07;;;2.30;;
15878;SDS011;61999;51.514;14.614;2023-04-25T12:29:50;3.00;;;2.37;;
15878;SDS011;61999;51.514;14.614;2023-04-25T12:32:20;3.47;;;2.63;;
15878;SDS011;61999;51.514;14.614;2023-04-25T12:34:49;3.47;;;2.10;;
15878;SDS011;61999;51.514;14.614;2023-04-25T12:37:18;2.80;;;1.90;;
15878;SDS011;61999;51.514;14.614;2023-04-25T12:39:47;3.57;;;1.90;;
15878;SDS011;61999;51.514;14.614;2023-04-25T12:42:15;3.93;;;1.33;;
15878;SDS011;61999;51.514;14.614;2023-04-25T12:44:42;3.20;;;2.00;;
15878;SDS011;61999;51.514;14.614;2023-04-25T12:47:10;4.23;;;2.27;;
15878;SDS011;61999;51.514;14.614;2023-04-25T12:49:38;5.10;;;2.13;;
15878;SDS011;61999;51.514;14.614;2023-04-25T12:52:06;3.03;;;1.90;;
15878;SDS011;61999;51.514;14.614;2023-04-25T12:54:35;4.07;;;2.10;;
15878;SDS011;61999;51.514;14.614;2023-04-25T12:57:04;3.87;;;2.37;;
15878;SDS011;61999;51.514;14.614;2023-04-25T12:59:32;4.17;;;2.33;;
15878;SDS011;61999;51.514;14.614;2023-04-25T13:02:00;4.20;;;2.07;;
15878;SDS011;61999;51.514;14.614;2023-04-25T13:04:29;2.70;;;2.13;;
15878;SDS011;61999;51.514;14.614;2023-04-25T13:06:57;3.27;;;2.30;;
15878;SDS011;61999;51.514;14.614;2023-04-25T13:09:25;4.10;;;2.43;;
15878;SDS011;61999;51.514;14.614;2023-04-25T13:11:54;3.93;;;2.17;;
15878;SDS011;61999;51.514;14.614;2023-04-25T13:14:24;5.43;;;2.80;;
15878;SDS011;61999;51.514;14.614;2023-04-25T13:16:52;7.10;;;2.30;;
15878;SDS011;61999;51.514;14.614;2023-04-25T13:19:20;4.73;;;2.10;;
15878;SDS011;61999;51.514;14.614;2023-04-25T13:21:48;3.93;;;2.10;;
15878;SDS011;61999;51.514;14.614;2023-04-25T13:24:16;4.40;;;2.10;;
15878;SDS011;61999;51.514;14.614;2023-04-25T13:26:44;7.57;;;2.53;;
15878;SDS011;61999;51.514;14.614;2023-04-25T13:29:13;5.00;;;2.43;;
15878;SDS011;61999;51.514;14.614;2023-04-25T13:31:41;5.47;;;2.40;;
15878;SDS011;61999;51.514;14.614;2023-04-25T13:34:09;6.93;;;2.40;;
15878;SDS011;61999;51.514;14.614;2023-04-25T13:36:38;5.93;;;2.20;;
15878;SDS011;61999;51.514;14.614;2023-04-25T13:39:06;6.33;;;2.63;;
15878;SDS011;61999;51.514;14.614;2023-04-25T13:41:34;5.57;;;2.20;;
15878;SDS011;61999;51.514;14.614;2023-04-25T13:44:03;7.43;;;2.47;;
15878;SDS011;61999;51.514;14.614;2023-04-25T13:46:32;6.30;;;2.63;;
15878;SDS011;61999;51.514;14.614;2023-04-25T13:49:10;7.33;;;2.37;;
15878;SDS011;61999;51.514;14.614;2023-04-25T13:51:38;3.97;;;2.53;;
15878;SDS011;61999;51.514;14.614;2023-04-25T13:54:06;5.27;;;2.60;;
15878;SDS011;61999;51.514;14.614;2023-04-25T13:56:35;6.07;;;2.47;;
15878;SDS011;61999;51.514;14.614;2023-04-25T13:59:03;5.93;;;2.40;;
15878;SDS011;61999;51.514;14.614;2023-04-25T14:01:32;6.10;;;2.80;;
15878;SDS011;61999;51.514;14.614;2023-04-25T14:04:02;5.37;;;2.10;;
15878;SDS011;61999;51.514;14.614;2023-04-25T14:06:31;4.40;;;2.27;;
15878;SDS011;61999;51.514;14.614;2023-04-25T14:08:59;5.40;;;2.30;;
15878;SDS011;61999;51.514;14.614;2023-04-25T14:11:27;3.87;;;2.37;;
15878;SDS011;61999;51.514;14.614;2023-04-25T14:13:55;7.53;;;2.57;;
15878;SDS011;61999;51.514;14.614;2023-04-25T14:16:23;4.53;;;2.33;;
15878;SDS011;61999;51.514;14.614;2023-04-25T14:18:53;4.20;;;2.60;;
15878;SDS011;61999;51.514;14.614;2023-04-25T14:21:21;3.47;;;2.13;;
15878;SDS011;61999;51.514;14.614;2023-04-25T14:23:49;7.43;;;2.73;;
15878;SDS011;61999;51.514;14.614;2023-04-25T14:26:17;6.13;;;2.47;;
15878;SDS011;61999;51.514;14.614;2023-04-25T14:28:45;8.77;;;2.83;;
15878;SDS011;61999;51.514;14.614;2023-04-25T14:31:13;6.50;;;2.70;;
15878;SDS011;61999;51.514;14.614;2023-04-25T14:33:41;3.17;;;2.40;;
15878;SDS011;61999;51.514;14.614;2023-04-25T14:36:11;5.27;;;2.63;;
15878;SDS011;61999;51.514;14.614;2023-04-25T14:38:38;6.77;;;3.20;;
15878;SDS011;61999;51.514;14.614;2023-04-25T14:41:06;3.63;;;2.23;;
15878;SDS011;61999;51.514;14.614;2023-04-25T14:43:34;5.53;;;2.73;;
15878;SDS011;61999;51.514;14.614;2023-04-25T14:46:02;4.83;;;2.30;;